Emine Anne — TCBX9 — position and weather

sailwx.info

Track history (hours):
 
Tides and Currents Weather Stations Pressure Air Temp Water Temp Dewpoint Dewpoint Depression Visibility Wind Speed Wind Dir Waves Ship Positions

Emine Anne

Last reported at 2015-May-26 04:10 UTC. Time now 2015-May-27 03:55 UTC.
Position N 40°46' E 029°26'.

Length 69 m; draft 4.1 m.

Type: Cargo ship. MMSI: 271002305.

Date/timePositionNaut miles runAvg speedWind from/ knotsBaromVisibWave heightAir tempDewpointWater temp
2015-May-26 04:10N 40°46' E 029°26'0 0.0
2015-May-25 22:29N 40°46' E 029°26'0 0.0
2015-May-25 16:21N 40°46' E 029°26'0 0.0
2015-May-25 14:21N 40°46' E 029°26'0 0.0
2015-May-25 13:20N 40°46' E 029°26'0 0.0
2015-May-25 12:17N 40°46' E 029°26'0 0.0
2015-May-25 11:14N 40°46' E 029°26'0 0.0
2015-May-25 09:14N 40°46' E 029°26'0 0.0
2015-May-25 07:23N 40°46' E 029°26'0 0.0
2015-May-25 04:14N 40°46' E 029°26'5 7.3
2015-May-25 03:33N 40°44' E 029°20'8 8.3
2015-May-25 02:33N 40°47' E 029°10'9 8.3
2015-May-25 01:29N 40°51' E 028°59'7 7.7
2015-May-25 00:32N 40°58' E 028°58'  
2015-May-17 08:06N 44°17' E 034°04'6 8.6
2015-May-17 07:27N 44°17' E 034°12'8 8.8
2015-May-17 06:34N 44°18' E 034°23'9 9.1
2015-May-17 05:33N 44°19' E 034°36'9 9.2
2015-May-17 04:34N 44°20' E 034°48'9 9.1
2015-May-17 03:32N 44°20' E 035°01'9 8.6
2015-May-17 02:29N 44°21' E 035°14'94 8.5
2015-May-16 15:25N 44°32' E 037°25'7 8.6
2015-May-16 14:33N 44°34' E 037°36'9 8.8
2015-May-16 13:33N 44°38' E 037°46'6 6.0
2015-May-16 12:33N 44°44' E 037°48'0 0.2
2015-May-16 11:33N 44°44' E 037°48'0 0.0
2015-May-16 10:33N 44°44' E 037°49'0 0.0
2015-May-16 09:32N 44°44' E 037°48'0 0.0
2015-May-16 08:33N 44°44' E 037°48'0 0.0
2015-May-16 07:33N 44°44' E 037°48'0 0.0
2015-May-16 06:27N 44°44' E 037°48'0 0.0
2015-May-16 05:31N 44°44' E 037°48'0 0.0
2015-May-16 04:28N 44°44' E 037°48'  
Track history (hours):
 
Tides and Currents Weather Stations Pressure Air Temp Water Temp Dewpoint Dewpoint Depression Visibility Wind Speed Wind Dir Waves Ship Positions

Emine Anne

Last reported at 2015-May-26 04:10 UTC. Time now 2015-May-27 03:55 UTC.
Position N 40°46' E 029°26'.

Length 69 m; draft 4.1 m.

Type: Cargo ship. MMSI: 271002305.

Date/timePositionNaut miles runAvg speedWind from/ knotsBaromVisibWave heightAir tempDewpointWater temp
2015-May-26 04:10N 40°46' E 029°26'0 0.0
2015-May-25 22:29N 40°46' E 029°26'0 0.0
2015-May-25 16:21N 40°46' E 029°26'0 0.0
2015-May-25 14:21N 40°46' E 029°26'0 0.0
2015-May-25 13:20N 40°46' E 029°26'0 0.0
2015-May-25 12:17N 40°46' E 029°26'0 0.0
2015-May-25 11:14N 40°46' E 029°26'0 0.0
2015-May-25 09:14N 40°46' E 029°26'0 0.0
2015-May-25 07:23N 40°46' E 029°26'0 0.0
2015-May-25 04:14N 40°46' E 029°26'5 7.3
2015-May-25 03:33N 40°44' E 029°20'8 8.3
2015-May-25 02:33N 40°47' E 029°10'9 8.3
2015-May-25 01:29N 40°51' E 028°59'7 7.7
2015-May-25 00:32N 40°58' E 028°58'  
2015-May-17 08:06N 44°17' E 034°04'6 8.6
2015-May-17 07:27N 44°17' E 034°12'8 8.8
2015-May-17 06:34N 44°18' E 034°23'9 9.1
2015-May-17 05:33N 44°19' E 034°36'9 9.2
2015-May-17 04:34N 44°20' E 034°48'9 9.1
2015-May-17 03:32N 44°20' E 035°01'9 8.6
2015-May-17 02:29N 44°21' E 035°14'94 8.5
2015-May-16 15:25N 44°32' E 037°25'7 8.6
2015-May-16 14:33N 44°34' E 037°36'9 8.8
2015-May-16 13:33N 44°38' E 037°46'6 6.0
2015-May-16 12:33N 44°44' E 037°48'0 0.2
2015-May-16 11:33N 44°44' E 037°48'0 0.0
2015-May-16 10:33N 44°44' E 037°49'0 0.0
2015-May-16 09:32N 44°44' E 037°48'0 0.0
2015-May-16 08:33N 44°44' E 037°48'0 0.0
2015-May-16 07:33N 44°44' E 037°48'0 0.0
2015-May-16 06:27N 44°44' E 037°48'0 0.0
2015-May-16 05:31N 44°44' E 037°48'0 0.0
2015-May-16 04:28N 44°44' E 037°48'  

Dump ship's entire track history